sensor_id;sensor_type;location;lat;lon;timestamp;temperature;humidity
18173;DHT22;9211;48.818;9.312;2023-07-02T00:02:24;18.50;99.90
18173;DHT22;9211;48.818;9.312;2023-07-02T00:04:51;18.50;99.90
18173;DHT22;9211;48.818;9.312;2023-07-02T00:07:17;18.40;99.90
18173;DHT22;9211;48.818;9.312;2023-07-02T00:09:44;18.50;99.90
18173;DHT22;9211;48.818;9.312;2023-07-02T00:12:11;18.40;99.90
18173;DHT22;9211;48.818;9.312;2023-07-02T00:14:40;18.50;99.90
18173;DHT22;9211;48.818;9.312;2023-07-02T00:17:07;18.50;99.90
18173;DHT22;9211;48.818;9.312;2023-07-02T00:19:33;18.40;99.90
18173;DHT22;9211;48.818;9.312;2023-07-02T00:22:00;18.40;99.90
18173;DHT22;9211;48.818;9.312;2023-07-02T00:24:28;18.40;99.90
18173;DHT22;9211;48.818;9.312;2023-07-02T00:26:55;18.40;99.90
18173;DHT22;9211;48.818;9.312;2023-07-02T00:29:22;18.30;99.90
18173;DHT22;9211;48.818;9.312;2023-07-02T00:31:51;18.30;99.90
18173;DHT22;9211;48.818;9.312;2023-07-02T00:34:18;18.20;99.90
18173;DHT22;9211;48.818;9.312;2023-07-02T00:36:45;18.20;99.90
18173;DHT22;9211;48.818;9.312;2023-07-02T00:39:12;18.20;99.90
18173;DHT22;9211;48.818;9.312;2023-07-02T00:41:39;18.20;99.90
18173;DHT22;9211;48.818;9.312;2023-07-02T00:44:08;18.20;99.90
18173;DHT22;9211;48.818;9.312;2023-07-02T00:46:36;18.10;99.90
18173;DHT22;9211;48.818;9.312;2023-07-02T00:49:04;18.10;99.90
18173;DHT22;9211;48.818;9.312;2023-07-02T00:51:32;18.10;99.90
18173;DHT22;9211;48.818;9.312;2023-07-02T00:53:59;18.10;99.90
18173;DHT22;9211;48.818;9.312;2023-07-02T00:56:26;18.20;99.90
18173;DHT22;9211;48.818;9.312;2023-07-02T00:58:54;18.20;99.90
18173;DHT22;9211;48.818;9.312;2023-07-02T01:01:25;18.20;99.90
18173;DHT22;9211;48.818;9.312;2023-07-02T01:03:55;18.20;99.90
18173;DHT22;9211;48.818;9.312;2023-07-02T01:06:27;18.20;99.90
18173;DHT22;9211;48.818;9.312;2023-07-02T01:08:57;18.30;99.90
18173;DHT22;9211;48.818;9.312;2023-07-02T01:11:27;18.30;99.90
18173;DHT22;9211;48.818;9.312;2023-07-02T01:13:59;18.30;99.90
18173;DHT22;9211;48.818;9.312;2023-07-02T01:16:29;18.30;99.90
18173;DHT22;9211;48.818;9.312;2023-07-02T01:18:59;18.30;99.90
18173;DHT22;9211;48.818;9.312;2023-07-02T01:21:33;18.20;99.90
18173;DHT22;9211;48.818;9.312;2023-07-02T01:24:00;18.20;99.90
18173;DHT22;9211;48.818;9.312;2023-07-02T01:26:29;18.20;99.90
18173;DHT22;9211;48.818;9.312;2023-07-02T01:29:00;18.20;99.90
18173;DHT22;9211;48.818;9.312;2023-07-02T01:31:27;18.10;99.90
18173;DHT22;9211;48.818;9.312;2023-07-02T01:33:54;18.20;99.90
18173;DHT22;9211;48.818;9.312;2023-07-02T01:36:21;18.10;99.90
18173;DHT22;9211;48.818;9.312;2023-07-02T01:38:49;18.00;99.90
18173;DHT22;9211;48.818;9.312;2023-07-02T01:41:16;18.00;99.90
18173;DHT22;9211;48.818;9.312;2023-07-02T01:43:43;18.00;99.90
18173;DHT22;9211;48.818;9.312;2023-07-02T01:46:10;18.00;99.90
18173;DHT22;9211;48.818;9.312;2023-07-02T01:48:37;18.00;99.90
18173;DHT22;9211;48.818;9.312;2023-07-02T01:51:04;18.00;99.90
18173;DHT22;9211;48.818;9.312;2023-07-02T01:53:31;18.00;99.90
18173;DHT22;9211;48.818;9.312;2023-07-02T01:55:59;18.10;99.90
18173;DHT22;9211;48.818;9.312;2023-07-02T01:58:26;18.00;99.90
18173;DHT22;9211;48.818;9.312;2023-07-02T02:03:29;18.00;99.90
18173;DHT22;9211;48.818;9.312;2023-07-02T02:05:56;18.00;99.90
18173;DHT22;9211;48.818;9.312;2023-07-02T02:08:23;18.00;99.90
18173;DHT22;9211;48.818;9.312;2023-07-02T02:10:50;18.00;99.90
18173;DHT22;9211;48.818;9.312;2023-07-02T02:13:18;18.00;99.90
18173;DHT22;9211;48.818;9.312;2023-07-02T02:15:45;18.00;99.90
18173;DHT22;9211;48.818;9.312;2023-07-02T02:18:12;18.00;99.90
18173;DHT22;9211;48.818;9.312;2023-07-02T02:20:39;17.90;99.90
18173;DHT22;9211;48.818;9.312;2023-07-02T02:23:06;17.90;99.90
18173;DHT22;9211;48.818;9.312;2023-07-02T02:25:35;17.90;99.90
18173;DHT22;9211;48.818;9.312;2023-07-02T02:28:02;17.90;99.90
18173;DHT22;9211;48.818;9.312;2023-07-02T02:30:30;17.90;99.90
18173;DHT22;9211;48.818;9.312;2023-07-02T02:32:57;17.90;99.90
18173;DHT22;9211;48.818;9.312;2023-07-02T02:35:26;17.90;99.90
18173;DHT22;9211;48.818;9.312;2023-07-02T02:37:53;18.00;99.90
18173;DHT22;9211;48.818;9.312;2023-07-02T02:40:21;18.00;99.90
18173;DHT22;9211;48.818;9.312;2023-07-02T02:42:48;18.00;99.90
18173;DHT22;9211;48.818;9.312;2023-07-02T02:45:15;18.00;99.90
18173;DHT22;9211;48.818;9.312;2023-07-02T02:47:44;18.00;99.90
18173;DHT22;9211;48.818;9.312;2023-07-02T02:50:12;18.00;99.90
18173;DHT22;9211;48.818;9.312;2023-07-02T02:52:40;18.00;99.90
18173;DHT22;9211;48.818;9.312;2023-07-02T02:55:08;18.00;99.90
18173;DHT22;9211;48.818;9.312;2023-07-02T02:57:36;18.00;99.90
18173;DHT22;9211;48.818;9.312;2023-07-02T03:00:03;18.00;99.90
18173;DHT22;9211;48.818;9.312;2023-07-02T03:02:31;18.00;99.90
18173;DHT22;9211;48.818;9.312;2023-07-02T03:04:59;17.90;99.90
18173;DHT22;9211;48.818;9.312;2023-07-02T03:07:28;17.90;99.90
18173;DHT22;9211;48.818;9.312;2023-07-02T03:09:55;17.90;99.90
18173;DHT22;9211;48.818;9.312;2023-07-02T03:12:22;17.90;99.90
18173;DHT22;9211;48.818;9.312;2023-07-02T03:14:49;17.90;99.90
18173;DHT22;9211;48.818;9.312;2023-07-02T03:17:18;17.90;99.90
18173;DHT22;9211;48.818;9.312;2023-07-02T03:19:45;17.90;99.90
18173;DHT22;9211;48.818;9.312;2023-07-02T03:22:14;17.90;99.90
18173;DHT22;9211;48.818;9.312;2023-07-02T03:24:41;18.00;99.90
18173;DHT22;9211;48.818;9.312;2023-07-02T03:27:08;18.00;99.90
18173;DHT22;9211;48.818;9.312;2023-07-02T03:29:35;18.00;99.90
18173;DHT22;9211;48.818;9.312;2023-07-02T03:32:04;18.00;99.90
18173;DHT22;9211;48.818;9.312;2023-07-02T03:34:31;18.00;99.90
18173;DHT22;9211;48.818;9.312;2023-07-02T03:36:59;18.00;99.90
18173;DHT22;9211;48.818;9.312;2023-07-02T03:39:27;17.90;99.90
18173;DHT22;9211;48.818;9.312;2023-07-02T03:41:54;17.80;99.90
18173;DHT22;9211;48.818;9.312;2023-07-02T03:44:21;17.60;99.90
18173;DHT22;9211;48.818;9.312;2023-07-02T03:46:48;17.50;99.90
18173;DHT22;9211;48.818;9.312;2023-07-02T03:49:15;17.40;99.90
18173;DHT22;9211;48.818;9.312;2023-07-02T03:51:42;17.30;99.90
18173;DHT22;9211;48.818;9.312;2023-07-02T03:54:09;17.30;99.90
18173;DHT22;9211;48.818;9.312;2023-07-02T03:56:37;17.10;99.90
18173;DHT22;9211;48.818;9.312;2023-07-02T03:59:04;17.10;99.90
18173;DHT22;9211;48.818;9.312;2023-07-02T04:01:31;17.10;99.90
18173;DHT22;9211;48.818;9.312;2023-07-02T04:03:58;17.00;99.90
18173;DHT22;9211;48.818;9.312;2023-07-02T04:06:25;17.00;99.90
18173;DHT22;9211;48.818;9.312;2023-07-02T04:08:52;17.00;99.90
18173;DHT22;9211;48.818;9.312;2023-07-02T04:11:21;17.10;99.90
18173;DHT22;9211;48.818;9.312;2023-07-02T04:13:49;17.10;99.90
18173;DHT22;9211;48.818;9.312;2023-07-02T04:16:16;17.20;99.90
18173;DHT22;9211;48.818;9.312;2023-07-02T04:18:43;17.20;99.90
18173;DHT22;9211;48.818;9.312;2023-07-02T04:21:10;17.20;99.90
18173;DHT22;9211;48.818;9.312;2023-07-02T04:23:37;17.10;99.90
18173;DHT22;9211;48.818;9.312;2023-07-02T04:26:04;17.10;99.90
18173;DHT22;9211;48.818;9.312;2023-07-02T04:28:31;17.10;99.90
18173;DHT22;9211;48.818;9.312;2023-07-02T04:30:59;17.10;99.90
18173;DHT22;9211;48.818;9.312;2023-07-02T04:33:26;17.00;99.90
18173;DHT22;9211;48.818;9.312;2023-07-02T04:36:01;17.00;99.90
18173;DHT22;9211;48.818;9.312;2023-07-02T04:38:28;17.10;99.90
18173;DHT22;9211;48.818;9.312;2023-07-02T04:40:55;17.10;99.90
18173;DHT22;9211;48.818;9.312;2023-07-02T04:43:27;17.10;99.90
18173;DHT22;9211;48.818;9.312;2023-07-02T04:45:54;17.10;99.90
18173;DHT22;9211;48.818;9.312;2023-07-02T04:48:23;17.10;99.90
18173;DHT22;9211;48.818;9.312;2023-07-02T04:50:50;17.20;99.90
18173;DHT22;9211;48.818;9.312;2023-07-02T04:53:17;17.20;99.90
18173;DHT22;9211;48.818;9.312;2023-07-02T04:55:44;17.20;99.90
18173;DHT22;9211;48.818;9.312;2023-07-02T04:58:11;17.20;99.90
18173;DHT22;9211;48.818;9.312;2023-07-02T05:00:38;17.20;99.90
18173;DHT22;9211;48.818;9.312;2023-07-02T05:03:05;17.20;99.90
18173;DHT22;9211;48.818;9.312;2023-07-02T05:05:34;17.20;99.90
18173;DHT22;9211;48.818;9.312;2023-07-02T05:08:01;17.30;99.90
18173;DHT22;9211;48.818;9.312;2023-07-02T05:10:30;17.30;99.90
18173;DHT22;9211;48.818;9.312;2023-07-02T05:12:57;17.40;99.90
18173;DHT22;9211;48.818;9.312;2023-07-02T05:15:24;17.50;99.90
18173;DHT22;9211;48.818;9.312;2023-07-02T05:17:51;17.50;99.90
18173;DHT22;9211;48.818;9.312;2023-07-02T05:20:18;17.50;99.90
18173;DHT22;9211;48.818;9.312;2023-07-02T05:22:47;17.50;99.90
18173;DHT22;9211;48.818;9.312;2023-07-02T05:25:13;17.60;99.90
18173;DHT22;9211;48.818;9.312;2023-07-02T05:27:40;17.50;99.90
18173;DHT22;9211;48.818;9.312;2023-07-02T05:30:08;17.60;99.90
18173;DHT22;9211;48.818;9.312;2023-07-02T05:32:35;17.60;99.90
18173;DHT22;9211;48.818;9.312;2023-07-02T05:35:02;17.60;99.90
18173;DHT22;9211;48.818;9.312;2023-07-02T05:37:30;17.70;99.90
18173;DHT22;9211;48.818;9.312;2023-07-02T05:39:58;17.70;99.90
18173;DHT22;9211;48.818;9.312;2023-07-02T05:42:25;17.60;99.90
18173;DHT22;9211;48.818;9.312;2023-07-02T05:44:52;17.60;99.90
18173;DHT22;9211;48.818;9.312;2023-07-02T05:47:19;17.60;99.90
18173;DHT22;9211;48.818;9.312;2023-07-02T05:49:46;17.70;99.90
18173;DHT22;9211;48.818;9.312;2023-07-02T05:52:13;17.60;99.90
18173;DHT22;9211;48.818;9.312;2023-07-02T05:54:40;17.70;99.90
18173;DHT22;9211;48.818;9.312;2023-07-02T05:57:08;17.70;99.90
18173;DHT22;9211;48.818;9.312;2023-07-02T05:59:35;17.70;99.90
18173;DHT22;9211;48.818;9.312;2023-07-02T06:02:03;17.70;99.90
18173;DHT22;9211;48.818;9.312;2023-07-02T06:04:30;17.70;99.90
18173;DHT22;9211;48.818;9.312;2023-07-02T06:06:56;17.80;99.90
18173;DHT22;9211;48.818;9.312;2023-07-02T06:09:23;17.80;99.90
18173;DHT22;9211;48.818;9.312;2023-07-02T06:11:50;17.80;99.90
18173;DHT22;9211;48.818;9.312;2023-07-02T06:14:19;17.90;99.90
18173;DHT22;9211;48.818;9.312;2023-07-02T06:16:45;17.90;99.90
18173;DHT22;9211;48.818;9.312;2023-07-02T06:19:12;17.90;99.90
18173;DHT22;9211;48.818;9.312;2023-07-02T06:21:39;18.00;99.90
18173;DHT22;9211;48.818;9.312;2023-07-02T06:24:06;18.00;99.90
18173;DHT22;9211;48.818;9.312;2023-07-02T06:26:33;18.00;99.90
18173;DHT22;9211;48.818;9.312;2023-07-02T06:29:00;18.00;99.90
18173;DHT22;9211;48.818;9.312;2023-07-02T06:31:29;18.00;99.90
18173;DHT22;9211;48.818;9.312;2023-07-02T06:33:56;18.00;99.90
18173;DHT22;9211;48.818;9.312;2023-07-02T06:36:23;18.10;99.90
18173;DHT22;9211;48.818;9.312;2023-07-02T06:38:50;18.20;99.90
18173;DHT22;9211;48.818;9.312;2023-07-02T06:41:17;18.30;99.90
18173;DHT22;9211;48.818;9.312;2023-07-02T06:43:44;18.40;99.90
18173;DHT22;9211;48.818;9.312;2023-07-02T06:46:11;18.40;99.90
18173;DHT22;9211;48.818;9.312;2023-07-02T06:48:40;18.50;99.90
18173;DHT22;9211;48.818;9.312;2023-07-02T06:51:07;18.50;99.90
18173;DHT22;9211;48.818;9.312;2023-07-02T06:53:34;18.50;99.90
18173;DHT22;9211;48.818;9.312;2023-07-02T06:56:01;18.60;99.90
18173;DHT22;9211;48.818;9.312;2023-07-02T06:58:28;18.60;99.90
18173;DHT22;9211;48.818;9.312;2023-07-02T07:00:55;18.60;99.90
18173;DHT22;9211;48.818;9.312;2023-07-02T07:03:22;18.60;99.90
18173;DHT22;9211;48.818;9.312;2023-07-02T07:05:50;18.60;99.90
18173;DHT22;9211;48.818;9.312;2023-07-02T07:08:17;18.60;99.90
18173;DHT22;9211;48.818;9.312;2023-07-02T07:10:45;18.50;99.90
18173;DHT22;9211;48.818;9.312;2023-07-02T07:13:15;18.50;99.90
18173;DHT22;9211;48.818;9.312;2023-07-02T07:15:42;18.50;99.90
18173;DHT22;9211;48.818;9.312;2023-07-02T07:18:09;18.40;99.90
18173;DHT22;9211;48.818;9.312;2023-07-02T07:20:36;18.40;99.90
18173;DHT22;9211;48.818;9.312;2023-07-02T07:23:06;18.50;99.90
18173;DHT22;9211;48.818;9.312;2023-07-02T07:25:33;18.60;99.90
18173;DHT22;9211;48.818;9.312;2023-07-02T07:28:00;18.60;99.90
18173;DHT22;9211;48.818;9.312;2023-07-02T07:30:27;18.80;99.90
18173;DHT22;9211;48.818;9.312;2023-07-02T07:32:55;18.80;99.90
18173;DHT22;9211;48.818;9.312;2023-07-02T07:35:22;18.90;99.90
18173;DHT22;9211;48.818;9.312;2023-07-02T07:37:49;18.90;99.90
18173;DHT22;9211;48.818;9.312;2023-07-02T07:40:18;19.00;99.90
18173;DHT22;9211;48.818;9.312;2023-07-02T07:42:45;19.00;99.90
18173;DHT22;9211;48.818;9.312;2023-07-02T07:45:12;19.00;99.90
18173;DHT22;9211;48.818;9.312;2023-07-02T07:47:39;19.00;99.90
18173;DHT22;9211;48.818;9.312;2023-07-02T07:50:07;19.10;99.90
18173;DHT22;9211;48.818;9.312;2023-07-02T07:52:37;19.20;99.90
18173;DHT22;9211;48.818;9.312;2023-07-02T07:55:05;19.20;99.90
18173;DHT22;9211;48.818;9.312;2023-07-02T07:57:34;19.40;99.90
18173;DHT22;9211;48.818;9.312;2023-07-02T08:00:01;19.40;99.90
18173;DHT22;9211;48.818;9.312;2023-07-02T08:02:42;19.30;99.90
18173;DHT22;9211;48.818;9.312;2023-07-02T08:05:09;19.30;99.90
18173;DHT22;9211;48.818;9.312;2023-07-02T08:07:36;19.30;99.90
18173;DHT22;9211;48.818;9.312;2023-07-02T08:10:03;19.30;99.90
18173;DHT22;9211;48.818;9.312;2023-07-02T08:12:31;19.40;99.90
18173;DHT22;9211;48.818;9.312;2023-07-02T08:14:59;19.40;99.90
18173;DHT22;9211;48.818;9.312;2023-07-02T08:17:26;19.50;99.90
18173;DHT22;9211;48.818;9.312;2023-07-02T08:19:53;19.60;99.90
18173;DHT22;9211;48.818;9.312;2023-07-02T08:22:20;19.70;99.90
18173;DHT22;9211;48.818;9.312;2023-07-02T08:24:47;19.60;99.90
18173;DHT22;9211;48.818;9.312;2023-07-02T08:27:15;19.70;99.90
18173;DHT22;9211;48.818;9.312;2023-07-02T08:29:45;19.80;99.90
18173;DHT22;9211;48.818;9.312;2023-07-02T08:32:13;19.80;99.90
18173;DHT22;9211;48.818;9.312;2023-07-02T08:34:40;19.90;99.90
18173;DHT22;9211;48.818;9.312;2023-07-02T08:37:07;19.90;99.90
18173;DHT22;9211;48.818;9.312;2023-07-02T08:39:34;19.90;99.90
18173;DHT22;9211;48.818;9.312;2023-07-02T08:42:03;20.10;99.90
18173;DHT22;9211;48.818;9.312;2023-07-02T08:44:30;20.10;99.90
18173;DHT22;9211;48.818;9.312;2023-07-02T08:46:58;20.30;99.90
18173;DHT22;9211;48.818;9.312;2023-07-02T08:49:27;20.50;99.90
18173;DHT22;9211;48.818;9.312;2023-07-02T08:51:54;20.60;99.90
18173;DHT22;9211;48.818;9.312;2023-07-02T08:54:21;20.70;99.90
18173;DHT22;9211;48.818;9.312;2023-07-02T08:56:48;20.80;99.90
18173;DHT22;9211;48.818;9.312;2023-07-02T08:59:15;20.70;99.90
18173;DHT22;9211;48.818;9.312;2023-07-02T09:01:45;20.70;99.90
18173;DHT22;9211;48.818;9.312;2023-07-02T09:04:17;20.70;99.90
18173;DHT22;9211;48.818;9.312;2023-07-02T09:06:45;20.80;99.90
18173;DHT22;9211;48.818;9.312;2023-07-02T09:09:15;20.70;99.90
18173;DHT22;9211;48.818;9.312;2023-07-02T09:11:49;20.60;99.90
18173;DHT22;9211;48.818;9.312;2023-07-02T09:14:27;20.60;99.90
18173;DHT22;9211;48.818;9.312;2023-07-02T09:17:04;20.50;99.90
18173;DHT22;9211;48.818;9.312;2023-07-02T09:19:32;20.60;99.90
18173;DHT22;9211;48.818;9.312;2023-07-02T09:22:01;20.60;99.90
18173;DHT22;9211;48.818;9.312;2023-07-02T09:24:30;20.80;99.90
18173;DHT22;9211;48.818;9.312;2023-07-02T09:26:58;20.80;99.90
18173;DHT22;9211;48.818;9.312;2023-07-02T09:29:26;20.90;99.90
18173;DHT22;9211;48.818;9.312;2023-07-02T09:31:54;20.90;99.90
18173;DHT22;9211;48.818;9.312;2023-07-02T09:34:27;21.00;99.90
18173;DHT22;9211;48.818;9.312;2023-07-02T09:36:55;20.90;99.90
18173;DHT22;9211;48.818;9.312;2023-07-02T09:39:28;20.90;99.90
18173;DHT22;9211;48.818;9.312;2023-07-02T09:41:55;20.90;99.90
18173;DHT22;9211;48.818;9.312;2023-07-02T09:44:25;20.90;99.90
18173;DHT22;9211;48.818;9.312;2023-07-02T09:46:58;20.90;99.90
18173;DHT22;9211;48.818;9.312;2023-07-02T09:49:27;21.00;99.90
18173;DHT22;9211;48.818;9.312;2023-07-02T09:51:59;21.10;99.90
18173;DHT22;9211;48.818;9.312;2023-07-02T09:54:28;21.30;99.90
18173;DHT22;9211;48.818;9.312;2023-07-02T09:56:56;21.40;99.90
18173;DHT22;9211;48.818;9.312;2023-07-02T09:59:23;21.50;99.90
18173;DHT22;9211;48.818;9.312;2023-07-02T10:01:50;21.60;99.90
18173;DHT22;9211;48.818;9.312;2023-07-02T10:04:19;21.60;99.90
18173;DHT22;9211;48.818;9.312;2023-07-02T10:06:47;21.60;99.90
18173;DHT22;9211;48.818;9.312;2023-07-02T10:09:14;21.60;99.90
18173;DHT22;9211;48.818;9.312;2023-07-02T10:11:43;21.80;99.90
18173;DHT22;9211;48.818;9.312;2023-07-02T10:14:11;21.80;99.90
18173;DHT22;9211;48.818;9.312;2023-07-02T10:16:56;21.90;99.90
18173;DHT22;9211;48.818;9.312;2023-07-02T10:19:23;21.80;99.90
18173;DHT22;9211;48.818;9.312;2023-07-02T10:22:00;21.90;99.90
18173;DHT22;9211;48.818;9.312;2023-07-02T10:24:28;21.90;99.90
18173;DHT22;9211;48.818;9.312;2023-07-02T10:26:58;21.90;99.90
18173;DHT22;9211;48.818;9.312;2023-07-02T10:29:27;22.00;99.90
18173;DHT22;9211;48.818;9.312;2023-07-02T10:31:55;22.00;99.90
18173;DHT22;9211;48.818;9.312;2023-07-02T10:34:33;22.10;99.90
18173;DHT22;9211;48.818;9.312;2023-07-02T10:37:01;22.30;99.90
18173;DHT22;9211;48.818;9.312;2023-07-02T10:39:28;22.30;99.90
18173;DHT22;9211;48.818;9.312;2023-07-02T10:42:05;22.40;99.90
18173;DHT22;9211;48.818;9.312;2023-07-02T10:44:32;22.30;99.90
18173;DHT22;9211;48.818;9.312;2023-07-02T10:47:00;22.30;99.90
18173;DHT22;9211;48.818;9.312;2023-07-02T10:49:31;22.20;99.90
18173;DHT22;9211;48.818;9.312;2023-07-02T10:51:58;22.30;99.90
18173;DHT22;9211;48.818;9.312;2023-07-02T10:54:26;22.40;99.90
18173;DHT22;9211;48.818;9.312;2023-07-02T10:56:57;22.50;99.90
18173;DHT22;9211;48.818;9.312;2023-07-02T10:59:25;22.60;99.90
18173;DHT22;9211;48.818;9.312;2023-07-02T11:01:52;22.70;99.90
18173;DHT22;9211;48.818;9.312;2023-07-02T11:04:21;22.80;99.90
18173;DHT22;9211;48.818;9.312;2023-07-02T11:06:49;22.90;99.90
18173;DHT22;9211;48.818;9.312;2023-07-02T11:09:16;23.10;99.90
18173;DHT22;9211;48.818;9.312;2023-07-02T11:11:53;23.30;99.90
18173;DHT22;9211;48.818;9.312;2023-07-02T11:14:29;23.50;99.90
18173;DHT22;9211;48.818;9.312;2023-07-02T11:16:57;23.60;99.90
18173;DHT22;9211;48.818;9.312;2023-07-02T11:19:25;23.70;99.90
18173;DHT22;9211;48.818;9.312;2023-07-02T11:21:53;23.60;99.90
18173;DHT22;9211;48.818;9.312;2023-07-02T11:24:29;23.60;99.90
18173;DHT22;9211;48.818;9.312;2023-07-02T11:26:57;23.50;99.90
18173;DHT22;9211;48.818;9.312;2023-07-02T11:29:24;23.40;99.90
18173;DHT22;9211;48.818;9.312;2023-07-02T11:31:52;23.30;99.90
18173;DHT22;9211;48.818;9.312;2023-07-02T11:34:21;23.20;99.90
18173;DHT22;9211;48.818;9.312;2023-07-02T11:36:50;23.10;99.90
18173;DHT22;9211;48.818;9.312;2023-07-02T11:39:19;23.20;99.90
18173;DHT22;9211;48.818;9.312;2023-07-02T11:41:47;23.30;99.90
18173;DHT22;9211;48.818;9.312;2023-07-02T11:44:16;23.40;99.90
18173;DHT22;9211;48.818;9.312;2023-07-02T11:46:43;23.40;99.90
18173;DHT22;9211;48.818;9.312;2023-07-02T11:49:14;23.30;99.90
18173;DHT22;9211;48.818;9.312;2023-07-02T11:51:41;23.20;99.90
18173;DHT22;9211;48.818;9.312;2023-07-02T11:54:14;23.10;99.90
18173;DHT22;9211;48.818;9.312;2023-07-02T11:56:41;23.10;99.30
18173;DHT22;9211;48.818;9.312;2023-07-02T11:59:08;23.00;99.50
18173;DHT22;9211;48.818;9.312;2023-07-02T12:01:35;23.20;99.90
18173;DHT22;9211;48.818;9.312;2023-07-02T12:04:03;23.40;99.80
18173;DHT22;9211;48.818;9.312;2023-07-02T12:06:32;23.60;99.10
18173;DHT22;9211;48.818;9.312;2023-07-02T12:08:59;23.70;98.80
18173;DHT22;9211;48.818;9.312;2023-07-02T12:11:26;23.70;97.70
18173;DHT22;9211;48.818;9.312;2023-07-02T12:13:53;23.70;97.30
18173;DHT22;9211;48.818;9.312;2023-07-02T12:16:20;23.70;97.60
18173;DHT22;9211;48.818;9.312;2023-07-02T12:18:47;23.70;97.00
18173;DHT22;9211;48.818;9.312;2023-07-02T12:21:14;23.80;98.60
18173;DHT22;9211;48.818;9.312;2023-07-02T12:23:42;23.80;99.00
18173;DHT22;9211;48.818;9.312;2023-07-02T12:26:09;23.70;99.00
18173;DHT22;9211;48.818;9.312;2023-07-02T12:28:36;23.80;98.00
18173;DHT22;9211;48.818;9.312;2023-07-02T12:31:03;23.80;97.80
18173;DHT22;9211;48.818;9.312;2023-07-02T12:33:30;23.70;97.90
18173;DHT22;9211;48.818;9.312;2023-07-02T12:35:57;23.70;97.70
18173;DHT22;9211;48.818;9.312;2023-07-02T12:38:25;23.70;97.80
18173;DHT22;9211;48.818;9.312;2023-07-02T12:40:53;23.80;96.60
18173;DHT22;9211;48.818;9.312;2023-07-02T12:43:20;23.80;96.10
18173;DHT22;9211;48.818;9.312;2023-07-02T12:45:47;23.90;95.50
18173;DHT22;9211;48.818;9.312;2023-07-02T12:48:14;24.00;95.90
18173;DHT22;9211;48.818;9.312;2023-07-02T12:50:41;24.20;96.10
18173;DHT22;9211;48.818;9.312;2023-07-02T12:53:08;24.20;94.90
18173;DHT22;9211;48.818;9.312;2023-07-02T12:55:35;24.20;95.30
18173;DHT22;9211;48.818;9.312;2023-07-02T12:58:03;24.30;95.80
18173;DHT22;9211;48.818;9.312;2023-07-02T13:00:30;24.30;94.90
18173;DHT22;9211;48.818;9.312;2023-07-02T13:02:57;24.40;94.40
18173;DHT22;9211;48.818;9.312;2023-07-02T13:05:24;24.40;93.30
18173;DHT22;9211;48.818;9.312;2023-07-02T13:07:51;24.20;93.70
18173;DHT22;9211;48.818;9.312;2023-07-02T13:10:18;24.20;93.30
18173;DHT22;9211;48.818;9.312;2023-07-02T13:12:45;24.30;93.60
18173;DHT22;9211;48.818;9.312;2023-07-02T13:15:13;24.50;93.60
18173;DHT22;9211;48.818;9.312;2023-07-02T13:17:40;24.60;92.50
18173;DHT22;9211;48.818;9.312;2023-07-02T13:20:10;24.50;91.50
18173;DHT22;9211;48.818;9.312;2023-07-02T13:22:37;24.50;91.40
18173;DHT22;9211;48.818;9.312;2023-07-02T13:25:04;24.40;92.00
18173;DHT22;9211;48.818;9.312;2023-07-02T13:27:32;24.40;92.10
18173;DHT22;9211;48.818;9.312;2023-07-02T13:29:59;24.40;91.50
18173;DHT22;9211;48.818;9.312;2023-07-02T13:32:27;24.40;91.70
18173;DHT22;9211;48.818;9.312;2023-07-02T13:34:54;24.50;90.70
18173;DHT22;9211;48.818;9.312;2023-07-02T13:37:21;24.70;90.60
18173;DHT22;9211;48.818;9.312;2023-07-02T13:39:49;24.80;91.20
18173;DHT22;9211;48.818;9.312;2023-07-02T13:42:16;25.00;91.40
18173;DHT22;9211;48.818;9.312;2023-07-02T13:44:43;25.20;90.10
18173;DHT22;9211;48.818;9.312;2023-07-02T13:47:10;25.30;88.10
18173;DHT22;9211;48.818;9.312;2023-07-02T13:49:38;25.40;86.80
18173;DHT22;9211;48.818;9.312;2023-07-02T13:52:05;25.60;87.80
18173;DHT22;9211;48.818;9.312;2023-07-02T13:54:33;25.60;86.30
18173;DHT22;9211;48.818;9.312;2023-07-02T13:56:59;25.60;86.20
18173;DHT22;9211;48.818;9.312;2023-07-02T13:59:28;25.70;86.10
18173;DHT22;9211;48.818;9.312;2023-07-02T14:01:55;25.80;87.20
18173;DHT22;9211;48.818;9.312;2023-07-02T14:04:22;26.00;84.70
18173;DHT22;9211;48.818;9.312;2023-07-02T14:06:49;26.10;85.60
18173;DHT22;9211;48.818;9.312;2023-07-02T14:09:16;26.20;84.50
18173;DHT22;9211;48.818;9.312;2023-07-02T14:11:42;26.20;85.60
18173;DHT22;9211;48.818;9.312;2023-07-02T14:14:10;26.20;84.00
18173;DHT22;9211;48.818;9.312;2023-07-02T14:16:38;26.20;83.30
18173;DHT22;9211;48.818;9.312;2023-07-02T14:19:05;26.30;84.30
18173;DHT22;9211;48.818;9.312;2023-07-02T14:21:32;26.40;81.30
18173;DHT22;9211;48.818;9.312;2023-07-02T14:23:59;26.40;80.00
18173;DHT22;9211;48.818;9.312;2023-07-02T14:26:26;26.40;79.90
18173;DHT22;9211;48.818;9.312;2023-07-02T14:28:53;26.40;80.80
18173;DHT22;9211;48.818;9.312;2023-07-02T14:31:20;26.50;80.70
18173;DHT22;9211;48.818;9.312;2023-07-02T14:33:49;26.50;79.80
18173;DHT22;9211;48.818;9.312;2023-07-02T14:36:16;26.50;81.20
18173;DHT22;9211;48.818;9.312;2023-07-02T14:38:43;26.70;80.60
18173;DHT22;9211;48.818;9.312;2023-07-02T14:41:11;26.70;79.40
18173;DHT22;9211;48.818;9.312;2023-07-02T14:43:38;26.70;79.60
18173;DHT22;9211;48.818;9.312;2023-07-02T14:46:05;26.80;79.20
18173;DHT22;9211;48.818;9.312;2023-07-02T14:48:32;26.90;78.60
18173;DHT22;9211;48.818;9.312;2023-07-02T14:51:01;26.90;76.50
18173;DHT22;9211;48.818;9.312;2023-07-02T14:53:30;26.90;75.80
18173;DHT22;9211;48.818;9.312;2023-07-02T14:55:59;27.00;76.00
18173;DHT22;9211;48.818;9.312;2023-07-02T14:58:27;27.00;76.70
18173;DHT22;9211;48.818;9.312;2023-07-02T15:00:55;27.00;76.70
18173;DHT22;9211;48.818;9.312;2023-07-02T15:03:24;27.30;78.90
18173;DHT22;9211;48.818;9.312;2023-07-02T15:05:52;27.40;75.50
18173;DHT22;9211;48.818;9.312;2023-07-02T15:08:21;27.50;75.60
18173;DHT22;9211;48.818;9.312;2023-07-02T15:10:49;27.60;74.60
18173;DHT22;9211;48.818;9.312;2023-07-02T15:13:17;27.60;74.50
18173;DHT22;9211;48.818;9.312;2023-07-02T15:15:45;27.50;73.60
18173;DHT22;9211;48.818;9.312;2023-07-02T15:18:12;27.40;75.00
18173;DHT22;9211;48.818;9.312;2023-07-02T15:20:40;27.40;74.10
18173;DHT22;9211;48.818;9.312;2023-07-02T15:23:07;27.40;74.00
18173;DHT22;9211;48.818;9.312;2023-07-02T15:25:35;27.50;75.30
18173;DHT22;9211;48.818;9.312;2023-07-02T15:28:02;27.50;73.10
18173;DHT22;9211;48.818;9.312;2023-07-02T15:30:30;27.50;72.50
18173;DHT22;9211;48.818;9.312;2023-07-02T15:32:57;27.40;72.70
18173;DHT22;9211;48.818;9.312;2023-07-02T15:35:23;27.40;72.00
18173;DHT22;9211;48.818;9.312;2023-07-02T15:37:50;27.40;72.20
18173;DHT22;9211;48.818;9.312;2023-07-02T15:40:17;27.50;74.60
18173;DHT22;9211;48.818;9.312;2023-07-02T15:42:46;27.70;72.80
18173;DHT22;9211;48.818;9.312;2023-07-02T15:45:13;27.70;72.20
18173;DHT22;9211;48.818;9.312;2023-07-02T15:47:40;27.60;71.00
18173;DHT22;9211;48.818;9.312;2023-07-02T15:50:08;27.50;72.00
18173;DHT22;9211;48.818;9.312;2023-07-02T15:52:35;27.60;73.30